Time;durP1;ratioP1;P1;durP2;ratioP2;P2;SDS_P1;SDS_P2;PMS_P1;PMS_P2;Temp;Humidity;BMP_temperature;BMP_pressure;BME280_temperature;BME280_humidity;BME280_pressure;Samples;Min_cycle;Max_cycle;Signal;HPM_P1;HPM_P2
2021/12/03 00:00:22;;;;;;;18.67;12.33;;;4.40;99.90;;;;;;5068572;28;20024;-76
2021/12/03 00:02:48;;;;;;;21.73;12.48;;;4.40;99.90;;;;;;5069997;28;20488;-77
2021/12/03 00:05:14;;;;;;;18.70;12.07;;;4.40;99.90;;;;;;5059159;28;20025;-77
2021/12/03 00:07:41;;;;;;;21.70;12.80;;;4.40;99.90;;;;;;5070119;28;20257;-76
2021/12/03 00:10:10;;;;;;;21.23;12.48;;;4.30;99.90;;;;;;5069826;28;20287;-77
2021/12/03 00:12:36;;;;;;;20.77;12.60;;;4.30;99.90;;;;;;5068549;28;20060;-77
2021/12/03 00:15:04;;;;;;;24.52;14.43;;;4.30;99.90;;;;;;5061654;28;20031;-79
2021/12/03 00:17:30;;;;;;;20.27;12.40;;;4.30;99.90;;;;;;5067647;28;20342;-76
2021/12/03 00:19:56;;;;;;;20.67;12.20;;;4.30;99.90;;;;;;5069697;28;20158;-78
2021/12/03 00:22:22;;;;;;;22.60;12.83;;;4.20;99.90;;;;;;5069761;28;20037;-78
2021/12/03 00:24:47;;;;;;;19.77;12.70;;;4.20;99.90;;;;;;5068327;28;20032;-77
2021/12/03 00:27:13;;;;;;;20.90;12.23;;;4.20;99.90;;;;;;5069565;28;20357;-78
2021/12/03 00:29:39;;;;;;;19.33;11.60;;;4.20;99.90;;;;;;5069193;28;20051;-76
2021/12/03 00:32:05;;;;;;;21.33;12.13;;;4.10;99.90;;;;;;5069865;28;20028;-77
2021/12/03 00:34:31;;;;;;;19.23;12.68;;;4.10;99.90;;;;;;5067840;28;20031;-77
2021/12/03 00:36:56;;;;;;;20.70;12.63;;;4.10;99.90;;;;;;5069128;28;20032;-78
2021/12/03 00:39:22;;;;;;;24.00;13.03;;;4.10;99.90;;;;;;5069022;28;20020;-77
2021/12/03 00:41:54;;;;;;;23.07;13.30;;;4.10;99.90;;;;;;5068238;28;20033;-78
2021/12/03 00:44:23;;;;;;;24.63;13.18;;;4.10;99.90;;;;;;5066172;28;20274;-77
2021/12/03 00:46:49;;;;;;;22.77;12.77;;;4.10;99.90;;;;;;5068391;28;20404;-76
2021/12/03 00:49:15;;;;;;;21.73;13.23;;;4.10;99.90;;;;;;5069264;28;20096;-77
2021/12/03 00:51:40;;;;;;;25.70;13.17;;;4.10;99.90;;;;;;5067934;28;20423;-77
2021/12/03 00:54:06;;;;;;;21.60;12.67;;;4.10;99.90;;;;;;5068141;28;20032;-77
2021/12/03 00:56:32;;;;;;;20.25;12.52;;;4.00;99.90;;;;;;5052256;28;20033;-78
2021/12/03 00:58:58;;;;;;;23.43;12.37;;;4.00;99.90;;;;;;5047685;28;20087;-76
2021/12/03 01:01:24;;;;;;;23.23;14.17;;;4.00;99.90;;;;;;5068349;28;20033;-77
2021/12/03 01:03:50;;;;;;;21.57;12.40;;;4.00;99.90;;;;;;5067924;28;20864;-78
2021/12/03 01:06:16;;;;;;;23.98;13.45;;;4.00;99.90;;;;;;5049020;28;20445;-78
2021/12/03 01:08:42;;;;;;;23.70;12.50;;;4.00;99.90;;;;;;5049415;28;20033;-78
2021/12/03 01:11:10;;;;;;;22.75;12.50;;;4.00;99.90;;;;;;5048672;28;20021;-78
2021/12/03 01:13:38;;;;;;;21.73;12.65;;;4.00;99.90;;;;;;5047682;28;20508;-78
2021/12/03 01:16:04;;;;;;;20.70;12.68;;;3.90;99.90;;;;;;5066735;28;20063;-77
2021/12/03 01:18:30;;;;;;;25.00;14.20;;;3.90;99.90;;;;;;5069379;28;20432;-77
2021/12/03 01:20:56;;;;;;;22.83;12.75;;;3.80;99.90;;;;;;5053258;28;20108;-77
2021/12/03 01:23:22;;;;;;;24.67;13.93;;;3.80;99.90;;;;;;5053554;28;20112;-77
2021/12/03 01:25:48;;;;;;;23.40;13.07;;;3.80;99.90;;;;;;5068231;28;20421;-77
2021/12/03 01:28:15;;;;;;;18.93;11.93;;;3.80;99.90;;;;;;5067629;28;20029;-77
2021/12/03 01:30:41;;;;;;;21.90;12.57;;;3.80;99.90;;;;;;5055005;28;20033;-76
2021/12/03 01:33:07;;;;;;;21.67;12.50;;;3.80;99.90;;;;;;5064878;28;20052;-77
2021/12/03 01:35:35;;;;;;;24.08;15.23;;;3.80;99.90;;;;;;5071230;28;20021;-77
2021/12/03 01:38:02;;;;;;;22.67;13.13;;;3.80;99.90;;;;;;5071044;28;20039;-77
2021/12/03 01:40:29;;;;;;;22.63;12.27;;;3.70;99.90;;;;;;5071922;28;20111;-77
2021/12/03 01:42:55;;;;;;;;;;;3.80;99.90;;;;;;5071394;28;20380;-76
2021/12/03 01:45:25;;;;;;;25.05;13.05;;;3.80;99.90;;;;;;5070017;28;19909;-76
2021/12/03 01:47:52;;;;;;;21.42;13.38;;;3.80;99.90;;;;;;5071082;28;20029;-77
2021/12/03 01:50:22;;;;;;;22.23;13.35;;;3.80;99.90;;;;;;5071882;28;20024;-77
2021/12/03 01:52:50;;;;;;;24.73;13.65;;;3.80;99.90;;;;;;5072181;28;20064;-77
2021/12/03 01:55:16;;;;;;;21.13;12.68;;;3.80;99.90;;;;;;5058780;28;20025;-75
2021/12/03 01:57:42;;;;;;;22.20;13.50;;;3.80;99.90;;;;;;5052348;28;20044;-77
2021/12/03 02:00:15;;;;;;;21.63;12.50;;;3.80;99.90;;;;;;5051761;28;20112;-77
2021/12/03 02:02:41;;;;;;;21.42;13.38;;;3.80;99.90;;;;;;5051964;28;20025;-77
2021/12/03 02:05:07;;;;;;;22.63;13.30;;;3.80;99.90;;;;;;5058389;28;20711;-77
2021/12/03 02:07:33;;;;;;;23.90;13.57;;;3.80;99.90;;;;;;5072322;28;20029;-76
2021/12/03 02:09:59;;;;;;;21.77;13.27;;;3.80;99.90;;;;;;5071665;28;20468;-78
2021/12/03 02:12:25;;;;;;;22.60;13.53;;;3.80;99.90;;;;;;5071300;28;20049;-75
2021/12/03 02:14:50;;;;;;;24.33;12.90;;;3.80;99.90;;;;;;5069792;28;20020;-78
2021/12/03 02:17:16;;;;;;;19.50;12.27;;;3.90;99.90;;;;;;5087048;28;20546;-78
2021/12/03 02:19:43;;;;;;;21.10;13.20;;;3.90;99.90;;;;;;5066169;28;20388;-78
2021/12/03 02:22:09;;;;;;;19.80;12.90;;;3.90;99.90;;;;;;5066599;28;20032;-77
2021/12/03 02:24:36;;;;;;;18.92;12.15;;;3.90;99.90;;;;;;5064791;28;20028;-77
2021/12/03 02:27:02;;;;;;;22.20;13.15;;;4.00;99.90;;;;;;5069819;28;20033;-77
2021/12/03 02:29:28;;;;;;;23.52;12.93;;;3.90;99.90;;;;;;5067999;28;20052;-77
2021/12/03 02:31:54;;;;;;;22.02;13.57;;;4.00;99.90;;;;;;5051182;28;20447;-79
2021/12/03 02:34:20;;;;;;;20.03;12.80;;;4.00;99.90;;;;;;5086306;28;20040;-77
2021/12/03 02:36:46;;;;;;;19.25;11.98;;;4.00;99.90;;;;;;5070137;28;20036;-77
2021/12/03 02:39:11;;;;;;;19.23;12.20;;;4.00;99.90;;;;;;5071178;28;20376;-77
2021/12/03 02:41:37;;;;;;;19.60;12.77;;;4.00;99.90;;;;;;5069760;28;20032;-77
2021/12/03 02:44:03;;;;;;;20.33;12.67;;;4.00;99.90;;;;;;5069927;28;20033;-78
2021/12/03 02:46:29;;;;;;;24.58;12.88;;;4.00;99.90;;;;;;5066235;28;20084;-78
2021/12/03 02:48:55;;;;;;;20.47;12.53;;;4.00;99.90;;;;;;5050017;28;20120;-76
2021/12/03 02:51:21;;;;;;;22.40;12.97;;;4.00;99.90;;;;;;5067790;28;20498;-77
2021/12/03 02:53:47;;;;;;;37.50;14.03;;;3.90;99.90;;;;;;5068411;28;20029;-76
2021/12/03 02:56:12;;;;;;;22.73;12.77;;;3.90;99.90;;;;;;5070316;28;20254;-76
2021/12/03 02:58:38;;;;;;;25.27;13.23;;;3.90;99.90;;;;;;5069579;28;20233;-77
2021/12/03 03:01:07;;;;;;;21.33;12.97;;;3.90;99.90;;;;;;5082176;28;20024;-77
2021/12/03 03:03:33;;;;;;;22.25;12.88;;;3.90;99.90;;;;;;5070198;28;20038;-77
2021/12/03 03:06:02;;;;;;;24.17;15.17;;;3.90;99.90;;;;;;5069187;28;20244;-77
2021/12/03 03:08:29;;;;;;;22.75;13.50;;;3.90;99.90;;;;;;5069592;28;20037;-77
2021/12/03 03:10:56;;;;;;;25.02;13.73;;;3.90;99.90;;;;;;5070423;28;20404;-77
2021/12/03 03:13:23;;;;;;;22.85;13.93;;;3.90;99.90;;;;;;5068181;28;20059;-78
2021/12/03 03:15:49;;;;;;;;;;;3.80;99.90;;;;;;5070536;28;20455;-77
2021/12/03 03:18:18;;;;;;;23.77;14.30;;;3.80;99.90;;;;;;5071013;28;20015;-77
2021/12/03 03:20:45;;;;;;;23.40;13.85;;;3.80;99.90;;;;;;5056426;28;20087;-77
2021/12/03 03:23:13;;;;;;;24.77;13.45;;;3.70;99.90;;;;;;5058325;28;20113;-77
2021/12/03 03:25:41;;;;;;;20.48;13.20;;;3.70;99.90;;;;;;5049990;28;20052;-77
2021/12/03 03:28:08;;;;;;;23.73;12.90;;;3.70;99.90;;;;;;5051130;28;20111;-77
2021/12/03 03:30:35;;;;;;;21.10;12.48;;;3.70;99.90;;;;;;5061580;28;20027;-78
2021/12/03 03:33:02;;;;;;;21.95;13.48;;;3.70;99.90;;;;;;5069501;28;20035;-78
2021/12/03 03:35:28;;;;;;;22.17;14.50;;;3.70;99.90;;;;;;5069934;28;20074;-78
2021/12/03 03:37:54;;;;;;;22.40;13.77;;;3.70;99.90;;;;;;5070392;28;20033;-77
2021/12/03 03:40:20;;;;;;;22.67;14.75;;;3.60;99.90;;;;;;5059847;28;20060;-78
2021/12/03 03:42:46;;;;;;;21.53;14.10;;;3.60;99.90;;;;;;5053155;28;20065;-77
2021/12/03 03:45:15;;;;;;;19.83;13.13;;;3.60;99.90;;;;;;5058604;28;20363;-78
2021/12/03 03:47:41;;;;;;;22.95;12.77;;;3.50;99.90;;;;;;5068740;28;20036;-78
2021/12/03 03:50:07;;;;;;;25.05;15.23;;;3.50;99.90;;;;;;5061445;28;20021;-78
2021/12/03 03:52:36;;;;;;;25.25;14.80;;;3.50;99.90;;;;;;5054264;28;20043;-77
2021/12/03 03:55:02;;;;;;;23.70;13.35;;;3.50;99.90;;;;;;5069908;28;20044;-77
2021/12/03 03:57:27;;;;;;;24.73;14.07;;;3.50;99.90;;;;;;5067878;28;20388;-76
2021/12/03 03:59:54;;;;;;;26.30;14.90;;;3.50;99.90;;;;;;5062759;28;20043;-77
2021/12/03 04:02:19;;;;;;;24.85;13.73;;;3.50;99.90;;;;;;5060599;28;20051;-78
2021/12/03 04:04:45;;;;;;;22.63;13.93;;;3.50;99.90;;;;;;5069343;28;20437;-77
2021/12/03 04:07:11;;;;;;;23.83;14.50;;;3.40;99.90;;;;;;5069888;28;20268;-78
2021/12/03 04:09:37;;;;;;;24.40;15.57;;;3.40;99.90;;;;;;5065130;28;20028;-78
2021/12/03 04:12:03;;;;;;;19.17;12.80;;;3.40;99.90;;;;;;5048359;28;20564;-77
2021/12/03 04:14:29;;;;;;;25.25;13.85;;;3.40;99.90;;;;;;5068138;28;20306;-76
2021/12/03 04:16:54;;;;;;;26.00;13.87;;;3.40;99.90;;;;;;5068207;28;20037;-77
2021/12/03 04:19:20;;;;;;;22.53;13.97;;;3.40;99.90;;;;;;5068616;28;20024;-77
2021/12/03 04:21:46;;;;;;;29.93;20.97;;;3.40;99.90;;;;;;5070033;28;20036;-76
2021/12/03 04:24:12;;;;;;;31.10;19.73;;;3.40;99.90;;;;;;5068047;28;20472;-78
2021/12/03 04:26:38;;;;;;;22.90;14.40;;;3.40;99.90;;;;;;5049482;28;20033;-77
2021/12/03 04:29:04;;;;;;;19.63;12.87;;;3.30;99.90;;;;;;5057699;28;20028;-78
2021/12/03 04:31:30;;;;;;;22.70;12.93;;;3.40;99.90;;;;;;5068580;28;20036;-77
2021/12/03 04:33:56;;;;;;;20.17;13.63;;;3.40;99.90;;;;;;5069451;28;20074;-77
2021/12/03 04:36:22;;;;;;;29.00;16.07;;;3.50;99.90;;;;;;5068926;28;20037;-77
2021/12/03 04:38:48;;;;;;;23.73;15.67;;;3.50;99.90;;;;;;5069125;28;20285;-76
2021/12/03 04:41:14;;;;;;;26.13;14.57;;;3.60;99.90;;;;;;5068165;28;20756;-77
2021/12/03 04:43:40;;;;;;;23.03;14.37;;;3.60;99.90;;;;;;5069603;28;20086;-76
2021/12/03 04:46:05;;;;;;;24.23;14.63;;;3.60;99.90;;;;;;5067655;28;20749;-77
2021/12/03 04:48:31;;;;;;;24.70;15.30;;;3.60;99.90;;;;;;5068764;28;20047;-76
2021/12/03 04:50:58;;;;;;;22.55;14.30;;;3.60;99.90;;;;;;5069259;28;20496;-77
2021/12/03 04:53:24;;;;;;;21.85;12.38;;;3.60;99.90;;;;;;5069256;28;20041;-77
2021/12/03 04:55:50;;;;;;;20.75;11.77;;;3.60;99.90;;;;;;5069005;28;20476;-77
2021/12/03 04:58:17;;;;;;;22.35;12.18;;;3.60;99.90;;;;;;5064627;28;20044;-77
2021/12/03 05:00:49;;;;;;;19.00;11.82;;;3.60;99.90;;;;;;5054045;28;20110;-77
2021/12/03 05:03:16;;;;;;;20.90;11.57;;;3.60;99.90;;;;;;5048129;28;20037;-77
2021/12/03 05:05:47;;;;;;;21.15;13.27;;;3.50;99.90;;;;;;5048852;28;20021;-76
2021/12/03 05:08:12;;;;;;;22.13;12.98;;;3.50;99.90;;;;;;5057421;28;20036;-76
2021/12/03 05:10:40;;;;;;;20.20;12.23;;;3.50;99.90;;;;;;5059389;28;20058;-77
2021/12/03 05:13:15;;;;;;;22.70;13.38;;;3.50;99.90;;;;;;5052498;28;20049;-77
2021/12/03 05:15:42;;;;;;;22.48;12.60;;;3.50;99.90;;;;;;5064297;28;20032;-78
2021/12/03 05:18:10;;;;;;;23.52;13.10;;;3.50;99.90;;;;;;5068002;28;20036;-77
2021/12/03 05:20:36;;;;;;;22.42;13.98;;;3.50;99.90;;;;;;5067668;28;20029;-77
2021/12/03 05:23:02;;;;;;;22.97;13.70;;;3.50;99.90;;;;;;5072962;28;20043;-77
2021/12/03 05:25:28;;;;;;;21.50;13.70;;;3.60;99.90;;;;;;5078703;28;20066;-77
2021/12/03 05:27:55;;;;;;;20.10;12.32;;;3.60;99.90;;;;;;5070606;28;20028;-77
2021/12/03 05:30:21;;;;;;;;;;;3.60;99.90;;;;;;5071699;28;20025;-77
2021/12/03 05:32:47;;;;;;;22.45;13.18;;;3.60;99.90;;;;;;5071366;28;20008;-77
2021/12/03 05:35:13;;;;;;;22.15;12.05;;;3.60;99.90;;;;;;5076988;28;20029;-75
2021/12/03 05:37:39;;;;;;;18.57;11.27;;;3.60;99.90;;;;;;5072380;28;20046;-77
2021/12/03 05:40:07;;;;;;;19.00;11.70;;;3.60;99.90;;;;;;5066560;28;20099;-77
2021/12/03 05:42:33;;;;;;;19.30;12.23;;;3.70;99.90;;;;;;5052534;28;20159;-76
2021/12/03 05:44:59;;;;;;;23.02;11.57;;;3.70;99.90;;;;;;5059777;28;20072;-78
2021/12/03 05:47:25;;;;;;;21.73;13.03;;;3.70;99.90;;;;;;5072120;28;20086;-78
2021/12/03 05:49:51;;;;;;;18.38;11.73;;;3.80;99.90;;;;;;5070043;28;20716;-79
2021/12/03 05:52:17;;;;;;;18.83;12.00;;;3.80;99.90;;;;;;5072491;28;20071;-77
2021/12/03 05:54:45;;;;;;;21.10;12.32;;;3.80;99.90;;;;;;5071926;28;20088;-77
2021/12/03 05:57:11;;;;;;;20.33;12.13;;;3.80;99.90;;;;;;5072067;28;20040;-77
2021/12/03 05:59:37;;;;;;;20.73;11.70;;;3.80;99.90;;;;;;5070879;28;20017;-78
2021/12/03 06:02:03;;;;;;;19.73;11.33;;;3.80;99.90;;;;;;5072398;28;20043;-77
2021/12/03 06:04:29;;;;;;;20.73;11.90;;;3.80;99.90;;;;;;5068549;28;20423;-76
2021/12/03 06:06:55;;;;;;;25.67;12.88;;;3.70;99.90;;;;;;5051770;28;20054;-77
2021/12/03 06:09:22;;;;;;;21.95;12.13;;;3.80;99.90;;;;;;5066848;28;20040;-77
2021/12/03 06:11:48;;;;;;;20.98;13.25;;;3.80;99.90;;;;;;5050571;28;20243;-76
2021/12/03 06:14:14;;;;;;;24.20;12.10;;;3.90;99.90;;;;;;5052264;28;20527;-77
2021/12/03 06:16:39;;;;;;;19.80;11.33;;;3.90;99.90;;;;;;5055814;28;20048;-77
2021/12/03 06:19:05;;;;;;;21.07;12.20;;;3.90;99.90;;;;;;5070036;28;20040;-76
2021/12/03 06:21:31;;;;;;;25.10;14.53;;;4.00;99.90;;;;;;5071203;28;20897;-75
2021/12/03 06:23:57;;;;;;;19.80;10.98;;;4.00;99.90;;;;;;5071901;28;20065;-77
2021/12/03 06:26:23;;;;;;;23.67;12.13;;;3.90;99.90;;;;;;5068923;28;20407;-77
2021/12/03 06:28:49;;;;;;;20.33;11.10;;;3.90;99.90;;;;;;5071670;28;20502;-77
2021/12/03 06:31:15;;;;;;;21.13;13.20;;;3.90;99.90;;;;;;5051991;28;20081;-77
2021/12/03 06:33:41;;;;;;;19.43;10.83;;;3.80;99.90;;;;;;5056649;28;20028;-77
2021/12/03 06:36:07;;;;;;;20.98;11.52;;;3.80;99.90;;;;;;5054045;28;20108;-77
2021/12/03 06:38:33;;;;;;;20.23;12.40;;;3.80;99.90;;;;;;5057126;28;20557;-77
2021/12/03 06:41:00;;;;;;;20.50;12.02;;;3.90;99.90;;;;;;5066614;28;20136;-78
2021/12/03 06:43:26;;;;;;;;;;;4.00;99.90;;;;;;5070506;28;20052;-75
2021/12/03 06:45:52;;;;;;;17.95;12.25;;;4.00;99.90;;;;;;5067252;28;19912;-79
2021/12/03 06:48:18;;;;;;;17.85;12.13;;;4.00;99.90;;;;;;5058915;28;20037;-77
2021/12/03 06:50:49;;;;;;;20.33;12.20;;;4.00;99.90;;;;;;5065113;28;20101;-77
2021/12/03 06:53:16;;;;;;;20.27;12.23;;;4.00;99.90;;;;;;5062727;28;20393;-77
2021/12/03 06:55:47;;;;;;;;;;;4.00;99.90;;;;;;5062847;28;20032;-77
2021/12/03 06:58:15;;;;;;;21.00;13.02;;;4.00;99.90;;;;;;5069319;28;19920;-77
2021/12/03 07:00:42;;;;;;;20.02;11.75;;;4.10;99.90;;;;;;5065983;28;20506;-77
2021/12/03 07:03:08;;;;;;;23.45;12.05;;;4.10;99.90;;;;;;5063003;28;20467;-76
2021/12/03 07:05:34;;;;;;;20.38;11.88;;;4.20;99.90;;;;;;5068417;28;20036;-77
2021/12/03 07:08:00;;;;;;;21.47;12.47;;;4.20;99.90;;;;;;5069726;28;20041;-77
2021/12/03 07:10:25;;;;;;;17.73;12.23;;;4.20;99.90;;;;;;5059949;28;20469;-77
2021/12/03 07:12:51;;;;;;;22.60;12.63;;;4.20;99.90;;;;;;5059758;28;20538;-77
2021/12/03 07:15:17;;;;;;;20.57;13.33;;;4.20;99.90;;;;;;5070120;28;20037;-77
2021/12/03 07:17:43;;;;;;;18.83;12.80;;;4.20;99.90;;;;;;5085912;28;20036;-78
2021/12/03 07:20:10;;;;;;;19.98;12.63;;;4.20;99.90;;;;;;5061502;28;20396;-78
2021/12/03 07:22:36;;;;;;;23.75;13.23;;;4.30;99.90;;;;;;5057397;28;20032;-77
2021/12/03 07:25:03;;;;;;;19.27;12.90;;;4.30;99.90;;;;;;5057706;28;20025;-78
2021/12/03 07:27:29;;;;;;;24.60;15.32;;;4.20;99.90;;;;;;5068154;28;20029;-78
2021/12/03 07:29:55;;;;;;;22.47;13.53;;;4.20;99.90;;;;;;5063264;28;20033;-78
2021/12/03 07:32:23;;;;;;;23.43;14.10;;;4.30;99.90;;;;;;5049015;28;20033;-78
2021/12/03 07:34:49;;;;;;;23.02;14.90;;;4.40;99.90;;;;;;5055746;28;20040;-77
2021/12/03 07:37:15;;;;;;;21.70;14.45;;;4.40;99.90;;;;;;5068357;28;20123;-78
2021/12/03 07:39:41;;;;;;;21.85;15.30;;;4.40;99.90;;;;;;5069777;28;20115;-77
2021/12/03 07:42:07;;;;;;;25.37;15.53;;;4.40;99.90;;;;;;5068614;28;20039;-78
2021/12/03 07:44:33;;;;;;;26.95;14.80;;;4.40;99.90;;;;;;5068510;28;20052;-78
2021/12/03 07:47:00;;;;;;;20.60;13.00;;;4.50;99.90;;;;;;5067820;28;20117;-77
2021/12/03 07:49:26;;;;;;;24.23;13.82;;;4.40;99.90;;;;;;5065966;28;20029;-78
2021/12/03 07:51:53;;;;;;;25.70;13.63;;;4.40;99.90;;;;;;5057624;28;20112;-77
2021/12/03 07:54:19;;;;;;;25.20;13.88;;;4.40;99.90;;;;;;5070309;28;20396;-77
2021/12/03 07:56:45;;;;;;;22.93;14.10;;;4.50;99.90;;;;;;5067883;28;20047;-77
2021/12/03 07:59:11;;;;;;;23.42;14.02;;;4.50;99.90;;;;;;5069766;28;20472;-77
2021/12/03 08:01:40;;;;;;;25.43;15.53;;;4.60;99.90;;;;;;5068707;28;20033;-78
2021/12/03 08:04:05;;;;;;;25.98;15.20;;;4.60;99.90;;;;;;5070048;28;20502;-69
2021/12/03 08:06:31;;;;;;;25.70;14.87;;;4.70;99.90;;;;;;5063709;28;20024;-68
2021/12/03 08:08:57;;;;;;;23.67;15.20;;;4.70;99.90;;;;;;5070181;28;20029;-67
2021/12/03 08:11:23;;;;;;;24.73;15.27;;;4.90;99.90;;;;;;5066458;28;20047;-67
2021/12/03 08:13:48;;;;;;;24.00;15.10;;;4.80;99.90;;;;;;5066227;28;20079;-67
2021/12/03 08:16:14;;;;;;;22.83;14.67;;;4.90;99.90;;;;;;5068947;28;20055;-68
2021/12/03 08:18:40;;;;;;;23.43;14.33;;;5.00;99.90;;;;;;5068223;28;20896;-67
2021/12/03 08:21:05;;;;;;;22.73;14.90;;;5.10;99.90;;;;;;5067910;28;20033;-68
2021/12/03 08:23:32;;;;;;;22.67;14.93;;;5.10;99.90;;;;;;5065354;28;20432;-66
2021/12/03 08:25:57;;;;;;;25.15;14.95;;;5.10;99.90;;;;;;5067998;28;20117;-68
2021/12/03 08:28:23;;;;;;;22.10;13.87;;;5.10;99.90;;;;;;5069870;28;20040;-66
2021/12/03 08:30:50;;;;;;;24.87;14.43;;;5.10;99.90;;;;;;5071687;28;20151;-65
2021/12/03 08:33:16;;;;;;;24.98;14.75;;;5.30;99.90;;;;;;5063460;28;20115;-65
2021/12/03 08:35:42;;;;;;;24.58;15.00;;;5.40;99.90;;;;;;5062910;28;20070;-66
2021/12/03 08:38:08;;;;;;;26.30;15.60;;;5.50;99.90;;;;;;5063768;28;20456;-68
2021/12/03 08:40:34;;;;;;;23.00;14.88;;;5.70;99.90;;;;;;5054871;28;20965;-67
2021/12/03 08:43:00;;;;;;;26.02;14.48;;;5.80;99.90;;;;;;5057573;28;20044;-67
2021/12/03 08:45:26;;;;;;;23.00;14.80;;;5.90;99.90;;;;;;5066264;28;20025;-68
2021/12/03 08:47:57;;;;;;;29.33;16.03;;;5.90;99.90;;;;;;5063091;28;20099;-67
2021/12/03 08:55:40;;;;;;;22.63;13.85;;;5.90;99.90;;;;;;5066250;28;20375;-68
2021/12/03 08:58:06;;;;;;;26.02;15.43;;;5.90;99.90;;;;;;5063252;28;20041;-67
2021/12/03 09:00:34;;;;;;;24.73;15.63;;;5.90;99.90;;;;;;5067065;28;20349;-67
2021/12/03 09:03:00;;;;;;;26.00;13.75;;;5.90;99.90;;;;;;5065749;28;20033;-67
2021/12/03 09:05:29;;;;;;;27.02;15.90;;;5.80;99.90;;;;;;5068118;28;20397;-67
2021/12/03 09:07:55;;;;;;;29.20;15.15;;;5.80;99.90;;;;;;5065246;28;20578;-68
2021/12/03 09:10:21;;;;;;;31.67;17.67;;;5.70;99.90;;;;;;5065650;28;20034;-67
2021/12/03 09:12:47;;;;;;;27.52;17.15;;;5.60;99.90;;;;;;5065838;28;20412;-64
2021/12/03 09:15:16;;;;;;;207.43;124.68;;;5.60;99.90;;;;;;5063182;28;20028;-64
2021/12/03 09:22:53;;;;;;;25.42;15.48;;;5.50;99.90;;;;;;5049466;28;20033;-66
2021/12/03 09:25:29;;;;;;;24.05;15.68;;;5.40;99.90;;;;;;5062211;28;20415;-67
2021/12/03 09:27:55;;;;;;;26.38;16.85;;;5.30;99.90;;;;;;5058299;28;20040;-69
2021/12/03 09:30:21;;;;;;;26.53;14.37;;;5.30;99.90;;;;;;5060759;28;20039;-67
2021/12/03 09:32:52;;;;;;;27.90;17.30;;;5.30;99.90;;;;;;5056882;28;20032;-68
2021/12/03 09:35:18;;;;;;;28.77;15.45;;;5.20;99.90;;;;;;5066743;28;20578;-69
2021/12/03 09:37:44;;;;;;;29.50;17.37;;;5.20;99.90;;;;;;5060776;28;20074;-70
2021/12/03 09:40:19;;;;;;;28.57;16.03;;;5.20;99.90;;;;;;5061735;28;20565;-70
2021/12/03 09:42:46;;;;;;;27.63;17.02;;;5.20;99.90;;;;;;5061974;28;20111;-69
2021/12/03 09:45:12;;;;;;;28.85;16.23;;;5.20;99.90;;;;;;5064009;28;20424;-69
2021/12/03 09:47:38;;;;;;;31.07;18.00;;;5.10;99.90;;;;;;5062169;28;20060;-68
2021/12/03 09:50:12;;;;;;;30.70;18.30;;;5.10;99.90;;;;;;5060216;28;20404;-68
2021/12/03 09:55:23;;;;;;;30.65;18.23;;;5.00;99.90;;;;;;5059632;28;20529;-64
2021/12/03 10:16:44;;;;;;;22.67;13.13;;;4.40;99.90;;;;;;5056980;28;20543;-68
2021/12/03 10:19:24;;;;;;;16.77;9.10;;;4.30;99.90;;;;;;5055448;28;20110;-68
2021/12/03 10:22:10;;;;;;;14.95;8.73;;;4.20;99.90;;;;;;5057904;28;20044;-69
2021/12/03 10:38:11;;;;;;;13.60;7.45;;;3.70;99.90;;;;;;5058487;28;20127;-69
2021/12/03 13:09:14;;;;;;;6.78;3.35;;;2.70;99.90;;;;;;5058687;28;20189;-66
2021/12/03 14:05:13;;;;;;;5.85;3.30;;;2.60;99.90;;;;;;5061090;28;20030;-67
2021/12/03 14:45:40;;;;;;;8.90;4.60;;;2.20;99.90;;;;;;5056936;28;20081;-64
2021/12/03 14:56:14;;;;;;;8.07;5.15;;;2.20;99.90;;;;;;5062444;28;20028;-64
2021/12/03 15:01:20;;;;;;;8.52;5.28;;;2.10;99.90;;;;;;5057918;28;20103;-65
2021/12/03 15:04:07;;;;;;;7.63;5.00;;;2.20;99.90;;;;;;5058566;28;20032;-65
2021/12/03 15:06:36;;;;;;;9.10;5.53;;;2.20;99.90;;;;;;5065311;28;20559;-66
2021/12/03 15:09:19;;;;;;;10.02;6.60;;;2.20;99.90;;;;;;5061321;28;20055;-65
2021/12/03 15:22:52;;;;;;;10.70;6.57;;;2.20;99.90;;;;;;5066956;28;20041;-68
2021/12/03 16:04:38;;;;;;;16.53;8.50;;;2.30;99.90;;;;;;5062349;28;20021;-67
2021/12/03 16:44:53;;;;;;;11.95;7.88;;;2.00;99.90;;;;;;5053160;28;20104;-67
2021/12/03 16:52:29;;;;;;;11.88;7.43;;;2.00;99.90;;;;;;5066204;28;20071;-76
2021/12/03 16:55:00;;;;;;;11.60;7.75;;;2.10;99.90;;;;;;5079824;28;20029;-74
2021/12/03 16:57:34;;;;;;;11.75;7.28;;;2.00;99.90;;;;;;5067518;28;20035;-75
2021/12/03 17:00:15;;;;;;;12.77;7.53;;;2.00;99.90;;;;;;5071867;28;20028;-76
2021/12/03 17:02:51;;;;;;;12.35;7.47;;;1.90;99.90;;;;;;5068722;28;20039;-75
2021/12/03 17:05:36;;;;;;;17.27;7.80;;;1.50;99.90;;;;;;5070767;28;20086;-76
2021/12/03 17:54:10;;;;;;;11.95;6.75;;;1.60;99.90;;;;;;5072398;28;20268;-74
2021/12/03 17:56:40;;;;;;;12.82;7.28;;;1.60;99.90;;;;;;5071602;28;20472;-76
2021/12/03 18:55:44;;;;;;;17.67;7.35;;;1.50;99.90;;;;;;5057967;28;20429;-75
2021/12/03 18:58:10;;;;;;;11.93;6.40;;;1.40;99.90;;;;;;5051053;28;20017;-75
2021/12/03 19:00:43;;;;;;;13.52;6.70;;;1.40;99.90;;;;;;5051182;28;20028;-76
2021/12/03 19:03:23;;;;;;;10.98;6.60;;;1.40;99.90;;;;;;5049476;28;20033;-75
2021/12/03 19:08:35;;;;;;;11.95;6.57;;;1.30;99.90;;;;;;5050956;28;20017;-76
2021/12/03 19:11:06;;;;;;;12.95;7.07;;;1.30;99.90;;;;;;5066590;28;20017;-75
2021/12/03 19:13:37;;;;;;;13.07;6.85;;;1.30;99.90;;;;;;5070826;28;20041;-76
2021/12/03 19:16:06;;;;;;;11.88;6.70;;;1.30;99.90;;;;;;5054191;28;20021;-77
2021/12/03 19:18:32;;;;;;;11.95;6.63;;;1.30;99.90;;;;;;5050617;28;20115;-75
2021/12/03 19:21:00;;;;;;;13.57;7.55;;;1.30;99.90;;;;;;5064166;28;20024;-74
2021/12/03 19:23:26;;;;;;;13.73;7.03;;;1.20;99.90;;;;;;5086273;28;20033;-77
2021/12/03 19:25:52;;;;;;;13.07;7.17;;;1.20;99.90;;;;;;5074512;28;20111;-76
2021/12/03 19:28:17;;;;;;;12.70;6.57;;;1.20;99.90;;;;;;5070333;28;20333;-76
2021/12/03 19:30:43;;;;;;;12.27;6.80;;;1.20;99.90;;;;;;5056985;28;20032;-75
2021/12/03 19:33:09;;;;;;;11.13;6.47;;;1.20;99.90;;;;;;5050092;28;20412;-76
2021/12/03 19:35:37;;;;;;;14.23;6.73;;;1.20;99.90;;;;;;5064841;28;20029;-75
2021/12/03 19:38:04;;;;;;;14.40;7.57;;;1.20;99.90;;;;;;5050232;28;20017;-76
2021/12/03 19:40:34;;;;;;;14.75;7.13;;;1.10;99.90;;;;;;5048155;28;20123;-76
2021/12/03 19:43:05;;;;;;;13.32;6.70;;;1.20;99.90;;;;;;5065652;28;20499;-75
2021/12/03 19:45:35;;;;;;;12.95;6.60;;;1.20;99.90;;;;;;5049868;28;20032;-77
2021/12/03 19:48:09;;;;;;;14.98;7.80;;;1.10;99.90;;;;;;5048366;28;20380;-76
2021/12/03 19:50:46;;;;;;;14.43;6.65;;;1.10;99.90;;;;;;5049727;28;20417;-76
2021/12/03 19:53:15;;;;;;;11.20;6.10;;;1.10;99.90;;;;;;5050264;28;20381;-77
2021/12/03 19:55:41;;;;;;;13.50;7.05;;;1.10;99.90;;;;;;5049356;28;20048;-75
2021/12/03 19:58:10;;;;;;;12.27;6.68;;;1.00;99.90;;;;;;5049878;28;20029;-75
2021/12/03 20:00:37;;;;;;;12.70;7.03;;;1.10;99.90;;;;;;5049656;28;20123;-75
2021/12/03 20:03:03;;;;;;;12.13;6.85;;;1.10;99.90;;;;;;5048734;28;20461;-75
2021/12/03 20:05:29;;;;;;;14.52;7.45;;;1.10;99.90;;;;;;5049091;28;20056;-75
2021/12/03 20:07:58;;;;;;;14.50;7.22;;;1.10;99.90;;;;;;5049418;28;20031;-75
2021/12/03 20:10:26;;;;;;;14.30;7.38;;;1.00;99.90;;;;;;5049574;28;20526;-75
2021/12/03 20:12:52;;;;;;;11.10;6.57;;;1.00;99.90;;;;;;5049378;28;20590;-75
2021/12/03 20:15:29;;;;;;;16.10;7.93;;;1.00;99.90;;;;;;5048895;28;20021;-74
2021/12/03 20:18:08;;;;;;;13.35;7.22;;;0.90;99.90;;;;;;5048438;28;20032;-75
2021/12/03 20:20:34;;;;;;;12.00;6.82;;;0.90;99.90;;;;;;5057491;28;20048;-75
2021/12/03 20:23:24;;;;;;;13.52;6.93;;;0.80;99.90;;;;;;5068594;28;20020;-75
2021/12/03 20:28:48;;;;;;;13.07;7.00;;;0.70;99.90;;;;;;5050048;28;20088;-75
2021/12/03 20:31:16;;;;;;;12.90;7.10;;;0.70;99.90;;;;;;5049341;28;20032;-78
2021/12/03 20:39:01;;;;;;;13.65;7.70;;;0.70;99.90;;;;;;5051555;28;20041;-77
2021/12/03 20:41:42;;;;;;;14.77;7.05;;;0.60;99.90;;;;;;5053493;28;20162;-75
2021/12/03 20:47:03;;;;;;;12.55;7.32;;;0.60;99.90;;;;;;5053260;28;20118;-75
2021/12/03 21:08:37;;;;;;;13.38;6.72;;;0.50;99.90;;;;;;5053846;28;20126;-77
2021/12/03 21:11:01;;;;;;;17.45;8.95;;;0.50;99.90;;;;;;5052614;28;20033;-76
2021/12/03 21:13:30;;;;;;;13.00;7.30;;;0.50;99.90;;;;;;5053310;28;20076;-76
2021/12/03 21:19:14;;;;;;;14.70;7.68;;;0.40;99.90;;;;;;5053247;28;20366;-76
2021/12/03 21:23:45;;;;;;;14.38;8.18;;;0.40;99.90;;;;;;5073431;28;20487;-75
2021/12/03 21:26:20;;;;;;;12.57;6.95;;;0.30;99.90;;;;;;5055384;28;20019;-75
2021/12/03 21:42:13;;;;;;;15.20;8.25;;;0.20;99.90;;;;;;5072749;28;20035;-75
2021/12/03 21:44:40;;;;;;;13.95;8.73;;;0.20;99.90;;;;;;5067815;28;20110;-75